Time;durP1;ratioP1;P1;durP2;ratioP2;P2;SDS_P1;SDS_P2;PMS_P1;PMS_P2;Temp;Humidity;BMP_temperature;BMP_pressure;BME280_temperature;BME280_humidity;BME280_pressure;Samples;Min_cycle;Max_cycle;Signal;HPM_P1;HPM_P2
2022/01/31 00:00:30;;;;;;;5.15;2.00;;;28.10;99.90;;;;;;5079092;28;20182;-76
2022/01/31 00:03:02;;;;;;;5.22;2.28;;;28.20;99.90;;;;;;5080755;28;20188;-75
2022/01/31 00:05:35;;;;;;;4.05;2.10;;;28.30;99.90;;;;;;5076931;28;20192;-77
2022/01/31 00:08:05;;;;;;;3.28;2.15;;;28.40;99.90;;;;;;5078591;28;20234;-76
2022/01/31 00:10:36;;;;;;;4.95;2.50;;;28.50;99.90;;;;;;5085180;28;20213;-77
2022/01/31 00:13:10;;;;;;;5.63;2.50;;;28.50;99.90;;;;;;5076714;28;20185;-75
2022/01/31 00:15:43;;;;;;;6.57;2.20;;;28.70;99.90;;;;;;5077463;28;20196;-75
2022/01/31 00:18:13;;;;;;;5.75;2.17;;;28.80;99.90;;;;;;5085294;28;20193;-74
2022/01/31 00:20:46;;;;;;;11.70;3.92;;;28.90;99.90;;;;;;5090359;28;20185;-75
2022/01/31 00:23:17;;;;;;;7.50;2.70;;;29.10;99.90;;;;;;5091304;28;20184;-74
2022/01/31 00:25:48;;;;;;;3.70;1.92;;;29.00;99.90;;;;;;5089128;28;20250;-75
2022/01/31 00:28:18;;;;;;;4.82;2.03;;;29.00;99.90;;;;;;5082514;28;20194;-75
2022/01/31 00:30:50;;;;;;;4.40;1.90;;;29.10;99.90;;;;;;5086964;28;20212;-75
2022/01/31 00:33:21;;;;;;;4.65;2.47;;;29.30;99.90;;;;;;5090246;28;20209;-74
2022/01/31 00:35:53;;;;;;;6.38;2.60;;;29.30;99.90;;;;;;5080772;28;20197;-74
2022/01/31 00:38:24;;;;;;;6.30;2.58;;;29.20;99.90;;;;;;5085875;28;20193;-75
2022/01/31 00:40:55;;;;;;;4.85;2.80;;;29.00;99.90;;;;;;5080710;28;20203;-74
2022/01/31 00:43:25;;;;;;;4.90;2.70;;;29.10;99.90;;;;;;5084969;28;20265;-75
2022/01/31 00:46:02;;;;;;;6.07;3.20;;;29.20;99.90;;;;;;5076626;28;20624;-75
2022/01/31 00:48:40;;;;;;;5.82;2.60;;;29.40;99.90;;;;;;5078725;28;20648;-75
2022/01/31 00:51:13;;;;;;;4.68;2.10;;;29.60;99.90;;;;;;5086663;28;20211;-73
2022/01/31 00:53:43;;;;;;;4.40;2.42;;;29.70;99.90;;;;;;5074761;28;20201;-74
2022/01/31 00:56:14;;;;;;;3.70;2.20;;;29.80;99.90;;;;;;5082607;28;20719;-75
2022/01/31 00:58:44;;;;;;;5.45;2.40;;;29.70;99.90;;;;;;5076188;28;20648;-74
2022/01/31 01:01:15;;;;;;;6.18;2.35;;;29.80;99.90;;;;;;5085222;28;20656;-74
2022/01/31 01:03:46;;;;;;;5.53;2.30;;;29.90;99.90;;;;;;5075865;28;20675;-75
2022/01/31 01:06:18;;;;;;;3.78;2.40;;;29.90;99.90;;;;;;5076407;28;20201;-74
2022/01/31 01:08:49;;;;;;;2.85;2.00;;;29.90;99.90;;;;;;5080908;28;20499;-75
2022/01/31 01:11:20;;;;;;;5.53;2.63;;;29.80;99.90;;;;;;5087689;28;20212;-75
2022/01/31 01:13:50;;;;;;;2.90;1.77;;;30.00;99.90;;;;;;5078820;28;20197;-75
2022/01/31 01:16:21;;;;;;;5.18;1.98;;;30.10;99.90;;;;;;5087413;28;20218;-75
2022/01/31 01:18:52;;;;;;;3.72;2.13;;;29.90;99.90;;;;;;5076518;28;20205;-74
2022/01/31 01:21:24;;;;;;;5.75;2.22;;;29.90;99.90;;;;;;5086511;28;20596;-74
2022/01/31 01:23:55;;;;;;;4.72;2.03;;;29.90;99.90;;;;;;5088536;28;20253;-74
2022/01/31 01:26:26;;;;;;;8.00;1.60;;;29.80;99.90;;;;;;5080904;28;20196;-75
2022/01/31 01:28:56;;;;;;;5.40;1.60;;;29.70;99.90;;;;;;5086666;28;20241;-75
2022/01/31 01:31:28;;;;;;;8.50;1.20;;;29.60;99.90;;;;;;5086011;28;20277;-74
2022/01/31 01:33:59;;;;;;;5.07;1.17;;;29.40;99.90;;;;;;5081880;28;20200;-74
2022/01/31 01:36:31;;;;;;;5.28;1.33;;;29.00;99.90;;;;;;5082224;28;20284;-74
2022/01/31 01:39:02;;;;;;;6.53;1.23;;;28.80;99.90;;;;;;5083098;28;20185;-74
2022/01/31 01:41:33;;;;;;;5.70;1.10;;;28.80;99.90;;;;;;5086903;28;20188;-75
2022/01/31 01:44:04;;;;;;;5.43;1.30;;;28.80;99.90;;;;;;5088719;28;20192;-75
2022/01/31 01:46:34;;;;;;;5.13;1.05;;;28.80;99.90;;;;;;5084352;28;20596;-75
2022/01/31 01:49:05;;;;;;;6.30;1.17;;;28.70;99.90;;;;;;5084254;28;20192;-75
2022/01/31 01:51:39;;;;;;;4.13;0.90;;;28.50;99.90;;;;;;5086376;28;20216;-74
2022/01/31 01:54:10;;;;;;;4.60;1.10;;;28.60;99.90;;;;;;5086885;28;20252;-75
2022/01/31 01:56:41;;;;;;;4.95;1.20;;;28.90;99.90;;;;;;5081919;28;20224;-75
2022/01/31 01:59:12;;;;;;;4.38;1.25;;;29.10;99.90;;;;;;5083226;28;20185;-76
2022/01/31 02:01:42;;;;;;;3.05;0.90;;;29.20;99.90;;;;;;5077733;28;20192;-75
2022/01/31 02:04:13;;;;;;;6.20;1.08;;;29.10;99.90;;;;;;5082568;28;20191;-74
2022/01/31 02:06:46;;;;;;;5.07;1.00;;;28.90;99.90;;;;;;5082054;28;20200;-73
2022/01/31 02:09:21;;;;;;;3.65;1.10;;;28.60;99.90;;;;;;5075463;28;20275;-74
2022/01/31 02:11:54;;;;;;;5.47;1.25;;;28.70;99.90;;;;;;5075115;28;20686;-73
2022/01/31 02:14:25;;;;;;;3.97;1.50;;;28.70;99.90;;;;;;5081021;28;20196;-73
2022/01/31 02:16:56;;;;;;;4.80;1.40;;;28.70;99.90;;;;;;5079975;28;20213;-74
2022/01/31 02:19:26;;;;;;;3.38;1.50;;;29.00;99.90;;;;;;5083137;28;20233;-73
2022/01/31 02:21:59;;;;;;;5.22;1.63;;;29.40;99.90;;;;;;5080182;28;20188;-74
2022/01/31 02:24:30;;;;;;;4.95;1.30;;;29.20;99.90;;;;;;5082967;28;20184;-73
2022/01/31 02:27:03;;;;;;;6.53;1.20;;;29.00;99.90;;;;;;5081119;28;20200;-74
2022/01/31 02:29:34;;;;;;;4.00;1.58;;;29.10;99.90;;;;;;5077744;28;20189;-74
2022/01/31 02:32:05;;;;;;;3.38;1.65;;;29.30;99.90;;;;;;5073587;28;20225;-74
2022/01/31 02:34:36;;;;;;;4.18;1.40;;;29.30;99.90;;;;;;5083880;28;20184;-73
2022/01/31 02:37:10;;;;;;;4.53;1.35;;;29.50;99.90;;;;;;5074633;28;20250;-74
2022/01/31 02:39:40;;;;;;;4.90;1.30;;;29.60;99.90;;;;;;5080538;28;20189;-74
2022/01/31 02:42:11;;;;;;;3.28;1.30;;;30.00;99.90;;;;;;5076502;28;20200;-73
2022/01/31 02:44:43;;;;;;;5.05;1.35;;;30.00;99.90;;;;;;5087718;28;20532;-73
2022/01/31 02:47:19;;;;;;;3.88;1.30;;;30.00;99.90;;;;;;5074763;28;20310;-73
2022/01/31 02:49:54;;;;;;;6.00;1.50;;;29.90;99.90;;;;;;5076438;28;20184;-75
2022/01/31 02:52:29;;;;;;;4.30;1.30;;;29.70;99.90;;;;;;5080110;28;20236;-74
2022/01/31 02:55:00;;;;;;;3.70;1.42;;;29.70;99.90;;;;;;5077129;28;20961;-73
2022/01/31 02:57:30;;;;;;;4.75;1.42;;;29.80;99.90;;;;;;5081683;28;20208;-74
2022/01/31 03:00:01;;;;;;;4.93;1.20;;;29.80;99.90;;;;;;5077319;28;20201;-74
2022/01/31 03:02:32;;;;;;;5.05;1.50;;;29.90;99.90;;;;;;5077849;28;20189;-75
2022/01/31 03:05:05;;;;;;;5.65;1.70;;;29.90;99.90;;;;;;5083597;28;20549;-73
2022/01/31 03:07:38;;;;;;;4.18;1.50;;;29.90;99.90;;;;;;5076467;28;20238;-74
2022/01/31 03:10:09;;;;;;;4.53;1.48;;;29.80;99.90;;;;;;5073117;28;20185;-76
2022/01/31 03:12:40;;;;;;;2.45;1.10;;;29.80;99.90;;;;;;5076708;28;20209;-75
2022/01/31 03:15:11;;;;;;;4.13;1.40;;;29.70;99.90;;;;;;5084108;28;20662;-75
2022/01/31 03:17:46;;;;;;;4.35;1.50;;;29.70;99.90;;;;;;5079656;28;20643;-75
2022/01/31 03:20:17;;;;;;;3.85;1.08;;;29.80;99.90;;;;;;5076709;28;20192;-76
2022/01/31 03:22:50;;;;;;;4.78;1.25;;;29.90;99.90;;;;;;5078376;28;20189;-76
2022/01/31 03:25:22;;;;;;;4.13;1.00;;;29.80;99.90;;;;;;5081334;28;20644;-76
2022/01/31 03:27:52;;;;;;;2.47;0.88;;;29.80;99.90;;;;;;5072546;28;20193;-74
2022/01/31 03:30:25;;;;;;;1.92;0.80;;;29.80;99.90;;;;;;5070487;28;20197;-76
2022/01/31 03:32:56;;;;;;;3.45;1.10;;;29.80;99.90;;;;;;5070992;28;20231;-75
2022/01/31 03:35:27;;;;;;;4.47;1.00;;;29.70;99.90;;;;;;5071960;28;20189;-77
2022/01/31 03:37:59;;;;;;;4.75;0.90;;;29.60;99.90;;;;;;5072953;28;20189;-74
2022/01/31 03:40:30;;;;;;;1.70;0.90;;;29.60;99.90;;;;;;5082507;28;20242;-74
2022/01/31 03:43:01;;;;;;;3.97;1.15;;;29.60;99.90;;;;;;5079324;28;20939;-73
2022/01/31 03:45:33;;;;;;;2.53;1.20;;;29.50;99.90;;;;;;5079300;28;20211;-74
2022/01/31 03:48:06;;;;;;;1.88;0.90;;;29.40;99.90;;;;;;5091239;28;20196;-74
2022/01/31 03:50:36;;;;;;;2.35;1.00;;;29.50;99.90;;;;;;5079644;28;20235;-74
2022/01/31 03:53:09;;;;;;;3.28;1.10;;;29.50;99.90;;;;;;5081766;28;20208;-74
2022/01/31 03:55:40;;;;;;;3.08;1.30;;;29.60;99.90;;;;;;5089888;28;20263;-73
2022/01/31 03:58:12;;;;;;;3.25;0.90;;;29.70;99.90;;;;;;5080177;28;20189;-75
2022/01/31 04:00:42;;;;;;;3.03;1.00;;;29.70;99.90;;;;;;5071833;28;20189;-74
2022/01/31 04:03:13;;;;;;;1.83;0.70;;;29.60;99.90;;;;;;5088629;28;20651;-74
2022/01/31 04:05:44;;;;;;;2.03;0.85;;;29.70;99.90;;;;;;5078819;28;20196;-72
2022/01/31 04:08:17;;;;;;;2.13;0.93;;;29.60;99.90;;;;;;5086630;28;20201;-74
2022/01/31 04:10:47;;;;;;;2.55;1.55;;;29.70;99.90;;;;;;5080819;28;20195;-74
2022/01/31 04:13:18;;;;;;;2.08;1.55;;;29.70;99.90;;;;;;5074303;28;20209;-74
2022/01/31 04:15:49;;;;;;;1.95;1.33;;;29.50;99.90;;;;;;5075737;28;20189;-73
2022/01/31 04:18:19;;;;;;;4.07;1.60;;;29.50;99.90;;;;;;5073772;28;20184;-75
2022/01/31 04:20:50;;;;;;;3.08;1.70;;;29.50;99.90;;;;;;5083996;28;20204;-74
2022/01/31 04:23:27;;;;;;;2.78;1.08;;;29.40;99.90;;;;;;5080635;28;20192;-73
2022/01/31 04:26:06;;;;;;;3.97;2.13;;;29.50;99.90;;;;;;5088818;28;20246;-74
2022/01/31 04:28:43;;;;;;;3.97;2.10;;;29.50;99.90;;;;;;5080945;28;20268;-72
2022/01/31 04:31:34;;;;;;;3.42;2.42;;;29.40;99.90;;;;;;5077499;28;20188;-73
2022/01/31 04:34:05;;;;;;;4.05;2.17;;;29.40;99.90;;;;;;5071894;28;20204;-74
2022/01/31 04:36:36;;;;;;;2.05;1.58;;;29.30;99.90;;;;;;5075529;28;20191;-74
2022/01/31 04:39:15;;;;;;;4.88;1.67;;;29.40;99.90;;;;;;5089586;28;20188;-75
2022/01/31 04:41:46;;;;;;;1.88;1.00;;;29.40;99.90;;;;;;5081883;28;20185;-74
2022/01/31 04:44:16;;;;;;;3.20;1.40;;;29.20;99.90;;;;;;5084090;28;20192;-75
2022/01/31 04:46:49;;;;;;;4.00;1.20;;;29.20;99.90;;;;;;5086111;28;20654;-74
2022/01/31 04:49:20;;;;;;;4.10;1.25;;;29.10;99.90;;;;;;5086077;28;20559;-74
2022/01/31 04:51:51;;;;;;;4.47;1.20;;;29.20;99.90;;;;;;5082548;28;20215;-74
2022/01/31 04:54:24;;;;;;;5.40;1.00;;;29.30;99.90;;;;;;5081816;28;20193;-74
2022/01/31 04:56:55;;;;;;;2.22;0.85;;;29.20;99.90;;;;;;5079960;28;20225;-74
2022/01/31 04:59:25;;;;;;;2.28;1.10;;;29.20;99.90;;;;;;5085990;28;20192;-75
2022/01/31 05:01:56;;;;;;;3.72;1.60;;;29.20;99.90;;;;;;5081835;28;20645;-75
2022/01/31 05:04:27;;;;;;;3.00;1.20;;;29.10;99.90;;;;;;5086911;28;20194;-75
2022/01/31 05:06:58;;;;;;;3.10;1.15;;;29.20;99.90;;;;;;5090239;28;20267;-74
2022/01/31 05:09:30;;;;;;;3.35;1.30;;;29.30;99.90;;;;;;5077867;28;20284;-75
2022/01/31 05:12:01;;;;;;;2.90;1.30;;;29.40;99.90;;;;;;5084985;28;20220;-75
2022/01/31 05:14:32;;;;;;;4.18;1.65;;;29.40;99.90;;;;;;5088515;28;20229;-75
2022/01/31 05:17:02;;;;;;;3.10;1.35;;;29.30;99.90;;;;;;5076276;28;20193;-75
2022/01/31 05:19:33;;;;;;;3.05;1.10;;;29.40;99.90;;;;;;5082668;28;20259;-76
2022/01/31 05:22:06;;;;;;;2.90;1.00;;;29.30;99.90;;;;;;5076686;28;20200;-75
2022/01/31 05:24:39;;;;;;;3.17;1.50;;;29.20;99.90;;;;;;5082350;28;20197;-74
2022/01/31 05:27:10;;;;;;;2.25;1.30;;;29.10;99.90;;;;;;5077159;28;20279;-74
2022/01/31 05:29:40;;;;;;;2.75;1.13;;;29.00;99.90;;;;;;5074935;28;20192;-74
2022/01/31 05:32:11;;;;;;;2.28;1.40;;;29.10;99.90;;;;;;5073747;28;20224;-75
2022/01/31 05:34:42;;;;;;;4.30;0.93;;;28.90;99.90;;;;;;5074878;28;20185;-76
2022/01/31 05:37:13;;;;;;;1.27;1.13;;;28.90;99.90;;;;;;5074126;28;20200;-75
2022/01/31 05:39:46;;;;;;;1.58;0.90;;;28.90;99.90;;;;;;5076432;28;20184;-74
2022/01/31 05:42:16;;;;;;;1.40;0.60;;;28.70;99.90;;;;;;5082029;28;20189;-75
2022/01/31 05:44:47;;;;;;;3.05;0.73;;;28.70;99.90;;;;;;5082898;28;20717;-75
2022/01/31 05:47:18;;;;;;;1.90;0.70;;;28.60;99.90;;;;;;5081266;28;20185;-74
2022/01/31 05:49:49;;;;;;;3.28;1.00;;;28.40;99.90;;;;;;5069885;28;20192;-74
2022/01/31 05:52:20;;;;;;;2.13;0.65;;;28.40;99.90;;;;;;5073114;28;20212;-75
2022/01/31 05:54:52;;;;;;;1.10;0.60;;;28.50;99.90;;;;;;5086881;28;20224;-76
2022/01/31 05:57:23;;;;;;;2.45;0.52;;;28.60;99.90;;;;;;5078791;28;20705;-74
2022/01/31 05:59:54;;;;;;;1.77;0.70;;;28.60;99.90;;;;;;5084098;28;20212;-75
2022/01/31 06:02:24;;;;;;;2.67;0.50;;;28.70;99.90;;;;;;5073417;28;20246;-74
2022/01/31 06:04:55;;;;;;;1.83;0.60;;;28.70;99.90;;;;;;5074720;28;20196;-75
2022/01/31 06:07:26;;;;;;;1.92;0.60;;;28.70;99.90;;;;;;5074238;28;20196;-74
2022/01/31 06:09:59;;;;;;;1.23;0.68;;;28.70;99.90;;;;;;5076055;28;20709;-75
2022/01/31 06:12:30;;;;;;;2.90;0.60;;;28.40;99.90;;;;;;5074279;28;20695;-75
2022/01/31 06:15:01;;;;;;;1.40;0.40;;;28.30;99.90;;;;;;5087710;28;20275;-75
2022/01/31 06:17:31;;;;;;;1.35;0.52;;;28.10;99.90;;;;;;5082576;28;20644;-74
2022/01/31 06:20:02;;;;;;;1.77;0.40;;;28.00;99.90;;;;;;5081783;28;20199;-76
2022/01/31 06:22:33;;;;;;;2.15;0.55;;;28.00;99.90;;;;;;5083495;28;20202;-75
2022/01/31 06:25:06;;;;;;;2.00;0.57;;;27.90;99.90;;;;;;5079123;28;20654;-74
2022/01/31 06:27:36;;;;;;;1.08;0.57;;;27.70;99.90;;;;;;5073907;28;20267;-74
2022/01/31 06:30:10;;;;;;;2.97;0.68;;;27.50;99.90;;;;;;5077903;28;20190;-75
2022/01/31 06:32:41;;;;;;;3.88;0.80;;;27.50;99.90;;;;;;5084014;28;20204;-75
2022/01/31 06:35:13;;;;;;;2.90;0.80;;;27.50;99.90;;;;;;5087536;28;20188;-75
2022/01/31 06:37:43;;;;;;;1.17;0.50;;;27.50;99.90;;;;;;5076339;28;20663;-74
2022/01/31 06:40:16;;;;;;;0.95;0.43;;;27.50;99.90;;;;;;5075925;28;20181;-73
2022/01/31 06:42:47;;;;;;;1.58;0.60;;;27.40;99.90;;;;;;5080260;28;20181;-73
2022/01/31 06:45:17;;;;;;;2.33;0.80;;;27.50;99.90;;;;;;5074916;28;20692;-74
2022/01/31 06:47:48;;;;;;;1.15;0.52;;;27.40;99.90;;;;;;5084289;28;20236;-75
2022/01/31 06:50:19;;;;;;;2.47;0.65;;;27.40;99.90;;;;;;5070721;28;20189;-75
2022/01/31 06:52:53;;;;;;;2.88;0.73;;;27.30;99.90;;;;;;5079682;28;20289;-75
2022/01/31 06:55:26;;;;;;;1.80;0.70;;;27.30;99.90;;;;;;5081131;28;20237;-74
2022/01/31 06:57:57;;;;;;;1.65;0.50;;;27.40;99.90;;;;;;5079395;28;20188;-74
2022/01/31 07:00:27;;;;;;;1.88;0.50;;;27.40;99.90;;;;;;5078659;28;20628;-74
2022/01/31 07:03:00;;;;;;;2.38;0.60;;;27.40;99.90;;;;;;5080052;28;20220;-74
2022/01/31 07:05:31;;;;;;;2.30;0.60;;;27.30;99.90;;;;;;5083069;28;20238;-74
2022/01/31 07:08:01;;;;;;;1.42;0.50;;;27.30;99.90;;;;;;5075241;28;20193;-74
2022/01/31 07:10:34;;;;;;;1.27;0.50;;;27.20;99.90;;;;;;5087564;28;20277;-74
2022/01/31 07:13:12;;;;;;;1.83;0.60;;;27.20;99.90;;;;;;5077802;28;20213;-74
2022/01/31 07:15:43;;;;;;;2.85;0.65;;;27.20;99.90;;;;;;5073087;28;20230;-75
2022/01/31 07:18:13;;;;;;;1.13;0.60;;;27.20;99.90;;;;;;5084715;28;20192;-74
2022/01/31 07:20:50;;;;;;;1.27;0.50;;;27.20;99.90;;;;;;5080841;28;20197;-73
2022/01/31 07:23:26;;;;;;;1.92;0.60;;;27.10;99.90;;;;;;5079651;28;20270;-75
2022/01/31 07:25:59;;;;;;;1.40;0.70;;;27.10;99.90;;;;;;5081460;28;20280;-75
2022/01/31 07:28:30;;;;;;;1.55;0.60;;;27.10;99.90;;;;;;5083212;28;20188;-74
2022/01/31 07:31:00;;;;;;;2.42;0.65;;;27.10;99.90;;;;;;5085820;28;20185;-74
2022/01/31 07:33:31;;;;;;;2.33;0.80;;;27.00;99.90;;;;;;5078836;28;20239;-74
2022/01/31 07:36:02;;;;;;;2.17;0.60;;;27.00;99.90;;;;;;5082779;28;20699;-74
2022/01/31 07:38:32;;;;;;;3.72;0.98;;;26.80;99.90;;;;;;5080775;28;20185;-73
2022/01/31 07:41:06;;;;;;;1.23;0.50;;;26.70;99.90;;;;;;5079148;28;20590;-74
2022/01/31 07:43:38;;;;;;;2.80;0.80;;;26.50;99.90;;;;;;5075259;28;20240;-74
2022/01/31 07:46:09;;;;;;;3.10;0.98;;;26.50;99.90;;;;;;5084516;28;20188;-73
2022/01/31 07:48:39;;;;;;;2.85;1.00;;;26.40;99.90;;;;;;5074308;28;20235;-74
2022/01/31 07:51:10;;;;;;;2.22;0.80;;;26.40;99.90;;;;;;5075563;28;20197;-75
2022/01/31 07:53:41;;;;;;;3.38;1.02;;;26.40;99.90;;;;;;5076593;28;20243;-73
2022/01/31 07:56:15;;;;;;;2.30;0.80;;;26.40;99.90;;;;;;5073784;28;20707;-74
2022/01/31 07:58:46;;;;;;;2.88;0.68;;;26.30;99.90;;;;;;5079958;28;20208;-73
2022/01/31 08:01:18;;;;;;;3.40;0.88;;;26.30;99.90;;;;;;5072147;28;20188;-73
2022/01/31 08:03:49;;;;;;;2.22;0.77;;;26.30;99.90;;;;;;5082734;28;20233;-74
2022/01/31 08:06:20;;;;;;;2.38;0.90;;;26.20;99.90;;;;;;5078905;28;20201;-74
2022/01/31 08:08:50;;;;;;;3.13;1.00;;;26.20;99.90;;;;;;5083553;28;20192;-73
2022/01/31 08:11:23;;;;;;;4.20;0.82;;;26.10;99.90;;;;;;5080714;28;20196;-74
2022/01/31 08:13:59;;;;;;;15.55;12.55;;;26.10;99.90;;;;;;5085519;28;20739;-74
2022/01/31 08:16:29;;;;;;;33.58;24.77;;;26.10;99.90;;;;;;5079283;28;20189;-73
2022/01/31 08:19:00;;;;;;;3.30;1.70;;;26.10;99.90;;;;;;5079210;28;20185;-73
2022/01/31 08:21:31;;;;;;;5.03;1.15;;;26.10;99.90;;;;;;5079011;28;20205;-73
2022/01/31 08:24:02;;;;;;;3.55;1.00;;;26.10;99.90;;;;;;5088203;28;20650;-74
2022/01/31 08:26:35;;;;;;;2.72;1.00;;;26.00;99.90;;;;;;5082359;28;20535;-73
2022/01/31 08:29:16;;;;;;;2.70;0.90;;;26.00;99.90;;;;;;5078713;28;20192;-73
2022/01/31 08:31:48;;;;;;;3.25;1.00;;;25.90;99.90;;;;;;5085817;28;20203;-74
2022/01/31 08:35:47;;;;;;;3.42;0.90;;;25.90;99.90;;;;;;5078268;28;20680;-74
2022/01/31 08:37:15;;;;;;;2.53;1.08;;;25.80;99.90;;;;;;5076930;28;20220;-75
2022/01/31 08:39:45;;;;;;;4.78;1.05;;;25.80;99.90;;;;;;5080725;28;20185;-74
2022/01/31 08:42:18;;;;;;;2.33;0.93;;;25.90;99.90;;;;;;5085338;28;20189;-73
2022/01/31 08:44:50;;;;;;;2.30;0.80;;;25.80;99.90;;;;;;5076527;28;20268;-73
2022/01/31 08:47:20;;;;;;;3.80;1.08;;;25.80;99.90;;;;;;5079210;28;20204;-73
2022/01/31 08:49:51;;;;;;;3.85;1.02;;;25.80;99.90;;;;;;5087564;28;20188;-74
2022/01/31 08:52:22;;;;;;;2.55;1.10;;;25.80;99.90;;;;;;5080913;28;20196;-73
2022/01/31 08:54:52;;;;;;;2.88;1.10;;;25.80;99.90;;;;;;5083930;28;20233;-72
2022/01/31 08:57:25;;;;;;;3.20;0.90;;;25.80;99.90;;;;;;5078002;28;20633;-74
2022/01/31 08:59:56;;;;;;;3.38;0.80;;;25.80;99.90;;;;;;5081442;28;20636;-74
2022/01/31 09:02:37;;;;;;;101.82;74.93;;;25.70;99.90;;;;;;5075334;28;20189;-74
2022/01/31 09:05:08;;;;;;;7.28;3.25;;;25.80;99.90;;;;;;5074047;28;20197;-74
2022/01/31 09:07:39;;;;;;;1.42;0.73;;;25.80;99.90;;;;;;5073948;28;20650;-73
2022/01/31 09:10:10;;;;;;;2.00;1.02;;;25.70;99.90;;;;;;5075883;28;20189;-73
2022/01/31 09:12:43;;;;;;;3.92;0.90;;;25.60;99.90;;;;;;5090050;28;20192;-74
2022/01/31 09:15:14;;;;;;;3.30;0.90;;;25.60;99.90;;;;;;5087268;28;20212;-73
2022/01/31 09:17:45;;;;;;;3.47;0.90;;;25.60;99.90;;;;;;5078279;28;20181;-73
2022/01/31 09:20:16;;;;;;;3.75;0.88;;;25.60;99.90;;;;;;5084536;28;20215;-73
2022/01/31 09:22:51;;;;;;;3.90;0.90;;;25.60;99.90;;;;;;5074448;28;20242;-73
2022/01/31 09:25:23;;;;;;;2.80;1.00;;;25.60;99.90;;;;;;5077441;28;20207;-73
2022/01/31 09:27:56;;;;;;;4.65;1.13;;;25.50;99.90;;;;;;5079257;28;20196;-74
2022/01/31 09:30:27;;;;;;;3.13;1.10;;;25.50;99.90;;;;;;5080284;28;20197;-73
2022/01/31 09:32:58;;;;;;;3.30;1.05;;;25.50;99.90;;;;;;5081988;28;20203;-73
2022/01/31 09:35:29;;;;;;;2.40;1.00;;;25.50;99.90;;;;;;5085537;28;20185;-73
2022/01/31 09:38:00;;;;;;;2.72;0.90;;;25.50;99.90;;;;;;5084626;28;20535;-75
2022/01/31 09:40:31;;;;;;;3.47;1.00;;;25.50;99.90;;;;;;5085588;28;20204;-76
2022/01/31 09:43:13;;;;;;;2.78;0.90;;;25.40;99.90;;;;;;5090743;28;20193;-76
2022/01/31 09:45:58;;;;;;;1.05;0.70;;;25.40;99.90;;;;;;5091157;28;20238;-75
2022/01/31 09:48:36;;;;;;;4.07;0.88;;;25.40;99.90;;;;;;5088175;28;20675;-76
2022/01/31 09:51:15;;;;;;;2.75;0.80;;;25.40;99.90;;;;;;5080475;28;20218;-76
2022/01/31 09:53:47;;;;;;;3.65;0.80;;;25.40;99.90;;;;;;5086663;28;20257;-74
2022/01/31 09:56:21;;;;;;;1.92;0.60;;;25.40;99.90;;;;;;5084504;28;20227;-75
2022/01/31 09:58:57;;;;;;;3.42;0.82;;;25.40;99.90;;;;;;5076698;28;20232;-75
2022/01/31 10:01:32;;;;;;;5.40;1.00;;;25.40;99.90;;;;;;5081063;28;20197;-74
2022/01/31 10:04:07;;;;;;;2.13;0.75;;;25.40;99.90;;;;;;5086177;28;20184;-75
2022/01/31 10:06:39;;;;;;;3.17;0.70;;;25.30;99.90;;;;;;5085104;28;20195;-76
2022/01/31 10:09:13;;;;;;;1.08;0.70;;;25.30;99.90;;;;;;5085943;28;20188;-76
2022/01/31 10:11:49;;;;;;;2.25;0.90;;;25.30;99.90;;;;;;5082507;28;20287;-76
2022/01/31 10:17:13;;;;;;;3.50;0.90;;;25.30;99.90;;;;;;5081103;28;20192;-77
2022/01/31 10:19:47;;;;;;;3.72;0.82;;;25.30;99.90;;;;;;5086431;28;20189;-77
2022/01/31 10:22:19;;;;;;;2.75;0.90;;;25.30;99.90;;;;;;5073935;28;20189;-78
2022/01/31 10:24:51;;;;;;;3.53;0.60;;;25.30;99.90;;;;;;5079041;28;20190;-77
2022/01/31 10:27:24;;;;;;;1.40;0.80;;;25.30;99.90;;;;;;5074465;28;20254;-76
2022/01/31 10:29:58;;;;;;;2.38;0.80;;;25.30;99.90;;;;;;5082055;28;20284;-77
2022/01/31 10:32:33;;;;;;;2.85;0.73;;;25.30;99.90;;;;;;5084291;28;20192;-77
2022/01/31 10:35:07;;;;;;;3.38;0.82;;;25.20;99.90;;;;;;5079914;28;20212;-76
2022/01/31 10:37:39;;;;;;;2.58;0.70;;;25.30;99.90;;;;;;5081278;28;20679;-76
2022/01/31 10:46:04;;;;;;;0.80;0.70;;;25.20;99.90;;;;;;5074008;28;20294;-77
2022/01/31 10:54:13;;;;;;;2.00;0.70;;;25.30;99.90;;;;;;5090606;28;20227;-75
2022/01/31 10:56:46;;;;;;;1.38;0.60;;;25.30;99.90;;;;;;5081965;28;20220;-76
2022/01/31 10:59:18;;;;;;;2.10;0.63;;;25.30;99.90;;;;;;5088849;28;20189;-75
2022/01/31 11:01:53;;;;;;;1.60;0.50;;;25.30;99.90;;;;;;5075901;28;20189;-76
2022/01/31 11:04:24;;;;;;;1.98;0.68;;;25.30;99.90;;;;;;5083312;28;20196;-76
2022/01/31 11:07:01;;;;;;;1.55;0.70;;;25.30;99.90;;;;;;5079554;28;20188;-76
2022/01/31 11:09:34;;;;;;;2.40;0.80;;;25.30;99.90;;;;;;5080706;28;20189;-77
2022/01/31 11:12:05;;;;;;;1.80;0.60;;;25.40;99.90;;;;;;5079243;28;20586;-77
2022/01/31 11:14:38;;;;;;;2.53;0.70;;;25.40;99.90;;;;;;5083606;28;20208;-77
2022/01/31 11:17:13;;;;;;;1.25;0.60;;;25.40;99.90;;;;;;5077944;28;20205;-76
2022/01/31 11:19:45;;;;;;;3.33;0.82;;;25.40;99.90;;;;;;5081961;28;20195;-77
2022/01/31 11:22:17;;;;;;;1.08;0.52;;;25.40;99.90;;;;;;5076439;28;20239;-76
2022/01/31 11:24:51;;;;;;;3.00;0.60;;;25.40;99.90;;;;;;5082024;28;20196;-76
2022/01/31 11:27:25;;;;;;;2.08;0.60;;;25.40;99.90;;;;;;5075734;28;20214;-76
2022/01/31 11:29:57;;;;;;;2.38;0.70;;;25.40;99.90;;;;;;5080622;28;20188;-75
2022/01/31 11:32:30;;;;;;;1.35;0.57;;;25.40;99.90;;;;;;5077062;28;20265;-76
2022/01/31 11:35:01;;;;;;;1.30;0.50;;;25.40;99.90;;;;;;5076744;28;20213;-76
2022/01/31 11:37:31;;;;;;;2.33;0.70;;;25.30;99.90;;;;;;5083357;28;20603;-76
2022/01/31 11:40:05;;;;;;;2.35;0.50;;;25.30;99.90;;;;;;5075866;28;20193;-76
2022/01/31 11:42:37;;;;;;;1.80;0.68;;;25.30;99.90;;;;;;5086721;28;20199;-76
2022/01/31 11:45:13;;;;;;;1.73;0.50;;;25.30;99.90;;;;;;5073794;28;20201;-77
2022/01/31 11:47:48;;;;;;;1.10;0.60;;;25.30;99.90;;;;;;5072993;28;20188;-77
2022/01/31 11:50:20;;;;;;;1.70;0.63;;;25.30;99.90;;;;;;5078422;28;20188;-76
2022/01/31 11:52:52;;;;;;;1.30;0.70;;;25.20;99.90;;;;;;5073155;28;20184;-76
2022/01/31 11:55:24;;;;;;;1.85;0.63;;;25.20;99.90;;;;;;5084625;28;20637;-75
2022/01/31 11:57:55;;;;;;;1.02;0.63;;;25.20;99.90;;;;;;5075207;28;20259;-76
2022/01/31 12:00:29;;;;;;;1.65;0.60;;;25.20;99.90;;;;;;5073361;28;20189;-76
2022/01/31 12:03:07;;;;;;;2.70;0.60;;;25.20;99.90;;;;;;5080376;28;20199;-77
2022/01/31 12:05:38;;;;;;;2.17;0.70;;;25.20;99.90;;;;;;5081731;28;20189;-76
2022/01/31 12:08:12;;;;;;;0.98;0.50;;;25.20;99.90;;;;;;5080249;28;20196;-75
2022/01/31 12:10:44;;;;;;;2.63;0.63;;;25.10;99.90;;;;;;5080699;28;20640;-73
2022/01/31 12:13:38;;;;;;;1.88;0.60;;;25.10;99.90;;;;;;5078542;28;20635;-76
2022/01/31 12:16:23;;;;;;;1.67;0.70;;;25.10;99.90;;;;;;5079349;28;20599;-76
2022/01/31 12:19:04;;;;;;;3.80;0.75;;;25.10;99.90;;;;;;5078625;28;20264;-73
2022/01/31 12:24:34;;;;;;;1.77;0.60;;;25.10;99.90;;;;;;5079307;28;20199;-74
2022/01/31 12:27:16;;;;;;;2.35;0.70;;;25.00;99.90;;;;;;5083445;28;20550;-76
2022/01/31 12:29:48;;;;;;;2.88;0.77;;;25.00;99.90;;;;;;5084658;28;20200;-76
2022/01/31 12:32:21;;;;;;;1.52;0.60;;;25.00;99.90;;;;;;5070887;28;20246;-76
2022/01/31 12:35:00;;;;;;;0.80;0.50;;;25.00;99.90;;;;;;5076423;28;20220;-76
2022/01/31 12:37:34;;;;;;;1.42;0.52;;;25.00;99.90;;;;;;5082643;28;20200;-77
2022/01/31 12:40:13;;;;;;;3.28;0.70;;;25.00;99.90;;;;;;5089144;28;20210;-77
2022/01/31 12:42:53;;;;;;;1.70;0.60;;;24.90;99.90;;;;;;5080881;28;20546;-76
2022/01/31 12:45:26;;;;;;;1.63;0.73;;;24.90;99.90;;;;;;5087967;28;20713;-73
2022/01/31 12:48:22;;;;;;;2.80;0.73;;;24.90;99.90;;;;;;5076110;28;20193;-76
2022/01/31 12:51:13;;;;;;;1.23;0.55;;;24.80;99.90;;;;;;5078157;28;20189;-74
2022/01/31 12:53:50;;;;;;;1.52;0.70;;;24.80;99.90;;;;;;5083940;28;20193;-76
2022/01/31 12:56:24;;;;;;;1.05;0.57;;;24.80;99.90;;;;;;5074064;28;20621;-77
2022/01/31 12:58:57;;;;;;;1.40;0.70;;;24.80;99.90;;;;;;5085479;28;20221;-76
2022/01/31 13:01:30;;;;;;;1.05;0.70;;;24.80;99.90;;;;;;5080973;28;20181;-76
2022/01/31 13:04:02;;;;;;;2.15;0.75;;;24.80;99.90;;;;;;5075292;28;20196;-75
2022/01/31 13:06:46;;;;;;;3.28;0.80;;;24.80;99.90;;;;;;5078450;28;20199;-77
2022/01/31 13:09:25;;;;;;;1.80;0.80;;;24.80;99.90;;;;;;5081019;28;20208;-76
2022/01/31 13:11:58;;;;;;;1.58;0.70;;;24.70;99.90;;;;;;5084461;28;20188;-76
2022/01/31 13:14:30;;;;;;;2.60;0.85;;;24.70;99.90;;;;;;5085633;28;20224;-76
2022/01/31 13:17:06;;;;;;;0.90;0.70;;;24.70;99.90;;;;;;5085343;28;20189;-76
2022/01/31 13:19:39;;;;;;;0.73;0.55;;;24.70;99.90;;;;;;5087808;28;20236;-76
2022/01/31 13:22:14;;;;;;;2.30;0.70;;;24.70;99.90;;;;;;5082412;28;20196;-76
2022/01/31 13:24:45;;;;;;;2.13;0.73;;;24.70;99.90;;;;;;5085251;28;20222;-76
2022/01/31 13:27:18;;;;;;;2.28;0.70;;;24.60;99.90;;;;;;5083063;28;20234;-77
2022/01/31 13:29:51;;;;;;;1.88;0.90;;;24.60;99.90;;;;;;5088853;28;20274;-77